Terminal Aerodrome Forecast
Issued by NWS Cleveland, OH

Home | Current Version | Previous Version | Graphics & Text | Print | Product List | Glossary On
Versions: 1 2 3 4 5 6 7 8 9 10 11 12 13 14 15 16 17 18 19 20 21
115
FTUS41 KCLE 200959 AAA
TAFTOL
TAF AMD
KTOL 200959Z 2010/2106 00000KT 3SM BR SCT008 OVC040
      TEMPO 2010/2014 1SM BR BKN008
     FM201600 21005KT P6SM BKN040=

USA.gov is the U.S. government's official web portal to all federal, state and local government web resources and services.